Terminal Aerodrome Forecast
Issued by NWS

Current Version | Previous Version | Graphics & Text | Print | Product List | Glossary On
Versions: 1 2 3 4 5 6 7 8 9 10 11 12 13 14 15 16 17 18 19 20 21 22 23 24 25
000
FTUS41 KRLX 031521 AAA
TAFCKB
TAF AMD
KCKB 031521Z 0315/0412 08003KT P6SM BKN070
     FM031900 12004KT 6SM SHRA VCTS OVC045CB
     FM032200 09004KT 3SM SHRA VCTS BKN035CB OVC060
      TEMPO 0322/0323 2SM TSRA OVC025CB
     FM032300 06004KT 5SM SHRA BR OVC050
     FM040000 11004KT P6SM OVC050
     FM040600 19003KT 4SM BR BKN015=

USA.gov is the U.S. government's official web portal to all federal, state and local government web resources and services.